createdAt,value
2024-01-22T00:01:36.859Z,-2.90
2024-01-22T00:06:42.175Z,-2.60
2024-01-22T00:11:47.088Z,-2.50
2024-01-22T00:16:51.486Z,-2.50
2024-01-22T00:21:56.073Z,-2.60
2024-01-22T00:27:04.969Z,-2.80
2024-01-22T00:32:09.688Z,-2.90
2024-01-22T00:37:13.138Z,-3.00
2024-01-22T00:42:18.219Z,-3.10
2024-01-22T00:47:22.679Z,-3.10
2024-01-22T00:52:26.331Z,-3.20
2024-01-22T00:57:32.171Z,-3.30
2024-01-22T01:02:35.993Z,-3.20
2024-01-22T01:07:39.412Z,-3.20
2024-01-22T01:12:44.429Z,-3.20
2024-01-22T01:17:49.699Z,-3.30
2024-01-22T01:22:53.279Z,-3.40
2024-01-22T01:27:58.012Z,-3.40
2024-01-22T01:33:04.014Z,-3.30
2024-01-22T01:38:07.304Z,-3.20
2024-01-22T01:43:12.497Z,-3.20
2024-01-22T01:48:17.269Z,-3.20
2024-01-22T01:53:21.723Z,-3.20
2024-01-22T01:58:26.653Z,-3.40
2024-01-22T02:03:30.442Z,-3.70
2024-01-22T02:08:33.830Z,-3.60
2024-01-22T02:13:38.716Z,-3.50
2024-01-22T02:18:42.610Z,-3.40
2024-01-22T02:23:47.371Z,-3.50
2024-01-22T02:28:50.620Z,-3.40
2024-01-22T02:33:54.411Z,-3.40
2024-01-22T02:38:59.415Z,-3.40
2024-01-22T02:44:03.140Z,-3.50
2024-01-22T02:49:06.769Z,-3.50
2024-01-22T02:54:13.932Z,-3.60
2024-01-22T02:59:18.711Z,-3.70
2024-01-22T03:04:22.392Z,-3.70
2024-01-22T03:09:27.419Z,-3.60
2024-01-22T03:14:30.957Z,-3.40
2024-01-22T03:19:34.422Z,-3.30
2024-01-22T03:24:47.482Z,-3.30
2024-01-22T03:29:50.889Z,-3.10
2024-01-22T03:34:54.287Z,-2.90
2024-01-22T03:40:19.285Z,-2.70
2024-01-22T03:45:28.717Z,-2.80
2024-01-22T03:50:33.517Z,-2.90
2024-01-22T03:55:39.378Z,-2.80
2024-01-22T04:00:46.524Z,-2.80
2024-01-22T04:05:50.228Z,-2.60
2024-01-22T04:10:55.009Z,-2.50
2024-01-22T04:16:00.604Z,-2.40
2024-01-22T04:21:04.074Z,-2.30
2024-01-22T04:26:09.184Z,-2.20
2024-01-22T04:31:12.656Z,-2.10
2024-01-22T04:36:16.216Z,-2.10
2024-01-22T04:41:21.616Z,-2.00
2024-01-22T04:46:24.884Z,-2.00
2024-01-22T04:51:35.289Z,-1.90
2024-01-22T04:56:43.485Z,-1.60
2024-01-22T05:01:46.904Z,-1.50
2024-01-22T05:06:50.298Z,-1.50
2024-01-22T05:12:02.027Z,-1.20
2024-01-22T05:17:05.715Z,-0.70
2024-01-22T05:22:09.494Z,-0.60
2024-01-22T05:27:14.508Z,0.10
2024-01-22T07:42:03.956Z,6.00
2024-01-22T07:47:08.135Z,5.90
2024-01-22T07:57:37.430Z,6.00
2024-01-22T08:02:42.072Z,6.40
2024-01-22T08:07:48.532Z,6.50
2024-01-22T08:13:04.399Z,6.60
2024-01-22T08:18:08.176Z,6.50
2024-01-22T08:23:12.159Z,6.70
2024-01-22T08:28:18.281Z,6.60
2024-01-22T08:33:22.427Z,6.90
2024-01-22T08:38:26.147Z,6.90
2024-01-22T08:43:31.262Z,7.20
2024-01-22T08:48:38.060Z,7.20
2024-01-22T08:53:47.648Z,7.30
2024-01-22T08:58:53.204Z,7.30
2024-01-22T09:04:03.851Z,7.50
2024-01-22T09:09:11.104Z,7.60
2024-01-22T09:14:17.136Z,7.70
2024-01-22T09:19:20.870Z,8.00
2024-01-22T09:24:30.599Z,8.00
2024-01-22T09:29:35.888Z,8.20
2024-01-22T09:34:41.770Z,8.50
2024-01-22T09:39:46.775Z,8.70
2024-01-22T09:45:04.041Z,9.10
2024-01-22T09:50:16.712Z,9.50
2024-01-22T10:01:45.427Z,10.20
2024-01-22T10:06:50.473Z,10.40
2024-01-22T10:11:54.278Z,10.40
2024-01-22T10:16:59.413Z,10.40
2024-01-22T10:22:03.371Z,10.20
2024-01-22T10:27:16.566Z,9.80
2024-01-22T10:32:24.249Z,9.70
2024-01-22T10:37:27.993Z,9.50
2024-01-22T10:43:44.567Z,9.60
2024-01-22T10:49:14.348Z,9.50
2024-01-22T10:54:20.073Z,9.50
2024-01-22T10:59:26.309Z,9.50
2024-01-22T11:04:48.153Z,9.70
2024-01-22T11:10:02.782Z,9.60
2024-01-22T11:15:13.401Z,9.70
2024-01-22T11:20:21.731Z,9.90
2024-01-22T11:25:48.887Z,10.00
2024-01-22T11:30:58.315Z,10.00
2024-01-22T11:36:03.820Z,9.70
2024-01-22T11:41:07.462Z,9.80
2024-01-22T11:46:18.178Z,9.70
2024-01-22T11:51:33.073Z,9.80
2024-01-22T11:56:36.787Z,9.80
2024-01-22T12:01:48.363Z,9.70
2024-01-22T12:07:04.573Z,9.70
2024-01-22T12:12:09.224Z,9.50
2024-01-22T12:17:12.914Z,9.50
2024-01-22T12:22:17.848Z,9.40
2024-01-22T12:27:22.871Z,9.30
2024-01-22T12:32:33.620Z,9.40
2024-01-22T12:38:24.654Z,9.30
2024-01-22T12:43:43.404Z,9.30
2024-01-22T12:48:49.392Z,9.40
2024-01-22T12:53:54.205Z,9.50
2024-01-22T12:58:59.440Z,9.20
2024-01-22T13:04:05.430Z,9.10
2024-01-22T13:09:12.538Z,8.90
2024-01-22T13:14:19.206Z,8.80
2024-01-22T13:19:23.717Z,8.70
2024-01-22T13:24:27.572Z,8.90
2024-01-22T13:29:32.819Z,9.00
2024-01-22T13:34:38.408Z,8.90
2024-01-22T13:39:45.816Z,8.90
2024-01-22T13:44:53.031Z,8.80
2024-01-22T13:49:58.876Z,8.90
2024-01-22T13:55:06.290Z,9.00
2024-01-22T14:00:12.856Z,9.10
2024-01-22T14:05:16.508Z,9.20
2024-01-22T14:10:20.181Z,9.20
2024-01-22T14:15:25.245Z,9.30
2024-01-22T14:20:30.501Z,9.20
2024-01-22T14:25:40.939Z,9.10
2024-01-22T14:30:46.309Z,9.10
2024-01-22T14:35:53.319Z,9.10
2024-01-22T14:40:57.998Z,9.00
2024-01-22T14:46:03.084Z,8.90
2024-01-22T14:51:07.130Z,9.00
2024-01-22T14:56:18.615Z,9.00
2024-01-22T15:01:34.922Z,8.90
2024-01-22T15:06:39.818Z,8.80
2024-01-22T15:11:43.626Z,8.80
2024-01-22T15:16:49.203Z,8.70
2024-01-22T15:21:52.867Z,8.60
2024-01-22T15:26:56.515Z,8.60
2024-01-22T15:32:04.850Z,8.60
2024-01-22T15:37:08.362Z,8.50
2024-01-22T15:42:31.146Z,8.40
2024-01-22T15:47:36.408Z,8.40
2024-01-22T15:52:40.486Z,8.30
2024-01-22T15:57:45.009Z,8.30
2024-01-22T16:02:50.098Z,8.20
2024-01-22T16:07:54.534Z,8.20
2024-01-22T16:12:58.343Z,8.10
2024-01-22T16:18:03.767Z,8.00
2024-01-22T16:23:09.161Z,7.80
2024-01-22T16:28:20.419Z,7.70
2024-01-22T16:33:25.882Z,7.80
2024-01-22T16:38:31.460Z,7.70
2024-01-22T16:43:34.965Z,7.60
2024-01-22T16:48:40.028Z,7.50
2024-01-22T16:53:43.893Z,7.50
2024-01-22T16:58:48.222Z,7.40
2024-01-22T17:03:53.623Z,7.30
2024-01-22T17:08:57.498Z,7.20
2024-01-22T17:14:01.187Z,7.30
2024-01-22T17:19:06.330Z,7.30
2024-01-22T17:24:10.217Z,7.10
2024-01-22T17:29:13.888Z,7.00
2024-01-22T17:34:20.339Z,7.00
2024-01-22T17:39:26.053Z,6.90
2024-01-22T17:44:30.170Z,6.90
2024-01-22T17:49:35.685Z,6.80
2024-01-22T17:54:48.192Z,6.80
2024-01-22T17:59:52.168Z,6.70
2024-01-22T18:04:57.298Z,6.70
2024-01-22T18:10:01.181Z,6.50
2024-01-22T18:15:05.471Z,6.40
2024-01-22T18:20:13.674Z,6.40
2024-01-22T18:25:17.786Z,6.50
2024-01-22T18:30:25.893Z,6.40
2024-01-22T18:35:33.350Z,6.30
2024-01-22T18:40:37.149Z,6.40
2024-01-22T18:45:41.965Z,6.30
2024-01-22T18:50:49.180Z,6.20
2024-01-22T18:55:52.770Z,6.20
2024-01-22T19:00:56.488Z,6.30
2024-01-22T19:06:03.457Z,6.30
2024-01-22T19:11:09.492Z,6.30
2024-01-22T19:16:16.815Z,6.20
2024-01-22T19:21:22.224Z,6.20
2024-01-22T19:26:26.570Z,6.20
2024-01-22T19:31:46.716Z,6.10
2024-01-22T19:36:52.035Z,6.00
2024-01-22T19:41:55.702Z,5.90
2024-01-22T19:47:06.042Z,6.00
2024-01-22T19:52:11.452Z,5.90
2024-01-22T19:57:26.378Z,6.00
2024-01-22T20:02:32.492Z,6.10
2024-01-22T20:07:53.626Z,6.10
2024-01-22T20:12:58.577Z,5.90
2024-01-22T20:18:02.278Z,5.90
2024-01-22T20:23:07.666Z,6.00
2024-01-22T20:28:11.347Z,5.90
2024-01-22T20:33:15.210Z,5.80
2024-01-22T20:38:20.392Z,5.80
2024-01-22T20:43:24.201Z,5.80
2024-01-22T20:48:28.243Z,5.70
2024-01-22T20:53:36.124Z,5.70
2024-01-22T20:58:45.602Z,5.80
2024-01-22T21:03:54.039Z,5.70
2024-01-22T21:08:59.233Z,5.60
2024-01-22T21:14:06.139Z,5.50
2024-01-22T21:19:10.087Z,5.60
2024-01-22T21:24:15.780Z,5.60
2024-01-22T21:29:19.834Z,5.50
2024-01-22T21:34:25.111Z,5.40
2024-01-22T21:39:30.411Z,5.50
2024-01-22T21:44:34.055Z,5.60
2024-01-22T21:49:39.049Z,5.60
2024-01-22T21:54:45.420Z,5.70
2024-01-22T21:59:50.904Z,5.80
2024-01-22T22:04:54.949Z,5.60
2024-01-22T22:10:00.570Z,5.60
2024-01-22T22:15:07.270Z,5.60
2024-01-22T22:20:12.996Z,5.60
2024-01-22T22:25:19.780Z,5.60
2024-01-22T22:30:23.595Z,5.40
2024-01-22T22:35:28.568Z,5.30
2024-01-22T22:40:33.798Z,5.20
2024-01-22T22:45:38.004Z,5.10
2024-01-22T22:50:50.055Z,5.10
2024-01-22T22:55:55.167Z,5.20
2024-01-22T23:01:12.334Z,5.10
2024-01-22T23:06:16.349Z,5.10
2024-01-22T23:11:22.224Z,5.10
2024-01-22T23:17:12.729Z,5.20
2024-01-22T23:28:03.315Z,5.30
2024-01-22T23:33:10.210Z,5.30
2024-01-22T23:38:15.084Z,5.30
2024-01-22T23:43:20.313Z,5.30
